sensor_id;sensor_type;location;lat;lon;timestamp;P1;durP1;ratioP1;P2;durP2;ratioP2
24617;SDS011;12762;51.730;5.356;2023-04-22T00:01:11;14.57;;;9.50;;
24617;SDS011;12762;51.730;5.356;2023-04-22T00:03:38;12.30;;;8.17;;
24617;SDS011;12762;51.730;5.356;2023-04-22T00:06:07;15.00;;;9.53;;
24617;SDS011;12762;51.730;5.356;2023-04-22T00:08:34;14.77;;;10.00;;
24617;SDS011;12762;51.730;5.356;2023-04-22T00:11:01;12.77;;;8.70;;
24617;SDS011;12762;51.730;5.356;2023-04-22T00:13:28;13.70;;;9.33;;
24617;SDS011;12762;51.730;5.356;2023-04-22T00:15:55;14.17;;;10.20;;
24617;SDS011;12762;51.730;5.356;2023-04-22T00:18:22;13.87;;;9.93;;
24617;SDS011;12762;51.730;5.356;2023-04-22T00:20:49;14.17;;;8.93;;
24617;SDS011;12762;51.730;5.356;2023-04-22T00:23:16;14.17;;;9.50;;
24617;SDS011;12762;51.730;5.356;2023-04-22T00:25:43;10.10;;;6.43;;
24617;SDS011;12762;51.730;5.356;2023-04-22T00:28:10;15.47;;;10.07;;
24617;SDS011;12762;51.730;5.356;2023-04-22T00:30:37;14.67;;;9.30;;
24617;SDS011;12762;51.730;5.356;2023-04-22T00:33:04;13.17;;;9.83;;
24617;SDS011;12762;51.730;5.356;2023-04-22T00:35:31;16.63;;;9.60;;
24617;SDS011;12762;51.730;5.356;2023-04-22T00:37:57;13.30;;;8.50;;
24617;SDS011;12762;51.730;5.356;2023-04-22T00:40:25;13.00;;;8.57;;
24617;SDS011;12762;51.730;5.356;2023-04-22T00:42:52;14.77;;;9.57;;
24617;SDS011;12762;51.730;5.356;2023-04-22T00:45:20;12.67;;;8.87;;
24617;SDS011;12762;51.730;5.356;2023-04-22T00:47:48;12.33;;;8.10;;
24617;SDS011;12762;51.730;5.356;2023-04-22T00:50:15;13.17;;;9.83;;
24617;SDS011;12762;51.730;5.356;2023-04-22T00:52:42;11.63;;;8.67;;
24617;SDS011;12762;51.730;5.356;2023-04-22T00:55:09;14.97;;;9.10;;
24617;SDS011;12762;51.730;5.356;2023-04-22T00:57:36;11.80;;;8.27;;
24617;SDS011;12762;51.730;5.356;2023-04-22T01:00:04;13.30;;;8.80;;
24617;SDS011;12762;51.730;5.356;2023-04-22T01:02:32;13.23;;;8.73;;
24617;SDS011;12762;51.730;5.356;2023-04-22T01:04:59;14.00;;;9.20;;
24617;SDS011;12762;51.730;5.356;2023-04-22T01:07:26;14.07;;;9.97;;
24617;SDS011;12762;51.730;5.356;2023-04-22T01:09:53;10.53;;;7.53;;
24617;SDS011;12762;51.730;5.356;2023-04-22T01:12:20;12.97;;;9.00;;
24617;SDS011;12762;51.730;5.356;2023-04-22T01:14:47;12.30;;;8.13;;
24617;SDS011;12762;51.730;5.356;2023-04-22T01:17:15;12.83;;;8.40;;
24617;SDS011;12762;51.730;5.356;2023-04-22T01:19:42;14.80;;;9.37;;
24617;SDS011;12762;51.730;5.356;2023-04-22T01:22:09;12.57;;;8.57;;
24617;SDS011;12762;51.730;5.356;2023-04-22T01:24:39;13.13;;;9.63;;
24617;SDS011;12762;51.730;5.356;2023-04-22T01:27:07;12.47;;;7.73;;
24617;SDS011;12762;51.730;5.356;2023-04-22T01:29:35;13.80;;;8.93;;
24617;SDS011;12762;51.730;5.356;2023-04-22T01:32:04;13.10;;;8.50;;
24617;SDS011;12762;51.730;5.356;2023-04-22T01:34:31;12.07;;;8.53;;
24617;SDS011;12762;51.730;5.356;2023-04-22T01:36:58;16.37;;;8.63;;
24617;SDS011;12762;51.730;5.356;2023-04-22T01:39:25;12.07;;;8.73;;
24617;SDS011;12762;51.730;5.356;2023-04-22T01:41:52;13.33;;;8.97;;
24617;SDS011;12762;51.730;5.356;2023-04-22T01:44:20;13.20;;;8.07;;
24617;SDS011;12762;51.730;5.356;2023-04-22T01:46:48;15.30;;;8.83;;
24617;SDS011;12762;51.730;5.356;2023-04-22T01:49:14;12.40;;;8.77;;
24617;SDS011;12762;51.730;5.356;2023-04-22T01:51:41;15.77;;;9.67;;
24617;SDS011;12762;51.730;5.356;2023-04-22T01:54:08;12.57;;;8.70;;
24617;SDS011;12762;51.730;5.356;2023-04-22T01:56:36;13.37;;;8.73;;
24617;SDS011;12762;51.730;5.356;2023-04-22T01:59:04;13.13;;;8.50;;
24617;SDS011;12762;51.730;5.356;2023-04-22T02:01:31;11.27;;;8.13;;
24617;SDS011;12762;51.730;5.356;2023-04-22T02:03:58;11.93;;;9.07;;
24617;SDS011;12762;51.730;5.356;2023-04-22T02:06:25;12.40;;;8.80;;
24617;SDS011;12762;51.730;5.356;2023-04-22T02:08:52;14.37;;;9.20;;
24617;SDS011;12762;51.730;5.356;2023-04-22T02:11:19;14.00;;;8.77;;
24617;SDS011;12762;51.730;5.356;2023-04-22T02:13:46;12.47;;;8.67;;
24617;SDS011;12762;51.730;5.356;2023-04-22T02:16:13;12.87;;;8.73;;
24617;SDS011;12762;51.730;5.356;2023-04-22T02:18:40;13.27;;;8.93;;
24617;SDS011;12762;51.730;5.356;2023-04-22T02:21:07;13.77;;;8.80;;
24617;SDS011;12762;51.730;5.356;2023-04-22T02:23:35;12.97;;;8.87;;
24617;SDS011;12762;51.730;5.356;2023-04-22T02:26:02;13.73;;;8.97;;
24617;SDS011;12762;51.730;5.356;2023-04-22T02:28:30;12.80;;;8.87;;
24617;SDS011;12762;51.730;5.356;2023-04-22T02:30:57;14.50;;;9.20;;
24617;SDS011;12762;51.730;5.356;2023-04-22T02:33:24;13.40;;;8.30;;
24617;SDS011;12762;51.730;5.356;2023-04-22T02:35:51;14.23;;;9.10;;
24617;SDS011;12762;51.730;5.356;2023-04-22T02:38:18;15.83;;;9.80;;
24617;SDS011;12762;51.730;5.356;2023-04-22T02:40:45;14.57;;;9.57;;
24617;SDS011;12762;51.730;5.356;2023-04-22T02:43:12;12.17;;;8.80;;
24617;SDS011;12762;51.730;5.356;2023-04-22T02:45:39;11.53;;;8.17;;
24617;SDS011;12762;51.730;5.356;2023-04-22T02:48:06;11.93;;;8.70;;
24617;SDS011;12762;51.730;5.356;2023-04-22T02:50:33;13.63;;;9.50;;
24617;SDS011;12762;51.730;5.356;2023-04-22T02:53:00;13.60;;;9.60;;
24617;SDS011;12762;51.730;5.356;2023-04-22T02:55:27;14.87;;;9.07;;
24617;SDS011;12762;51.730;5.356;2023-04-22T02:57:54;13.13;;;9.07;;
24617;SDS011;12762;51.730;5.356;2023-04-22T03:00:21;13.57;;;8.97;;
24617;SDS011;12762;51.730;5.356;2023-04-22T03:02:47;13.07;;;8.87;;
24617;SDS011;12762;51.730;5.356;2023-04-22T03:05:15;13.67;;;9.33;;
24617;SDS011;12762;51.730;5.356;2023-04-22T03:07:41;15.93;;;10.33;;
24617;SDS011;12762;51.730;5.356;2023-04-22T03:10:09;13.63;;;9.50;;
24617;SDS011;12762;51.730;5.356;2023-04-22T03:12:36;13.97;;;9.37;;
24617;SDS011;12762;51.730;5.356;2023-04-22T03:15:03;15.30;;;9.30;;
24617;SDS011;12762;51.730;5.356;2023-04-22T03:17:30;13.70;;;9.47;;
24617;SDS011;12762;51.730;5.356;2023-04-22T03:19:57;14.00;;;9.17;;
24617;SDS011;12762;51.730;5.356;2023-04-22T03:22:24;13.57;;;9.17;;
24617;SDS011;12762;51.730;5.356;2023-04-22T03:24:50;15.30;;;9.50;;
24617;SDS011;12762;51.730;5.356;2023-04-22T03:27:17;15.23;;;9.80;;
24617;SDS011;12762;51.730;5.356;2023-04-22T03:29:44;13.57;;;9.60;;
24617;SDS011;12762;51.730;5.356;2023-04-22T03:32:11;15.20;;;9.23;;
24617;SDS011;12762;51.730;5.356;2023-04-22T03:34:38;14.27;;;9.93;;
24617;SDS011;12762;51.730;5.356;2023-04-22T03:37:05;13.53;;;9.80;;
24617;SDS011;12762;51.730;5.356;2023-04-22T03:39:32;14.50;;;10.27;;
24617;SDS011;12762;51.730;5.356;2023-04-22T03:41:58;14.93;;;10.03;;
24617;SDS011;12762;51.730;5.356;2023-04-22T03:44:26;13.83;;;9.73;;
24617;SDS011;12762;51.730;5.356;2023-04-22T03:46:53;14.57;;;10.10;;
24617;SDS011;12762;51.730;5.356;2023-04-22T03:49:20;16.67;;;10.43;;
24617;SDS011;12762;51.730;5.356;2023-04-22T03:51:47;14.47;;;9.73;;
24617;SDS011;12762;51.730;5.356;2023-04-22T03:54:14;14.53;;;10.17;;
24617;SDS011;12762;51.730;5.356;2023-04-22T03:56:41;14.40;;;10.00;;
24617;SDS011;12762;51.730;5.356;2023-04-22T03:59:08;14.33;;;10.07;;
24617;SDS011;12762;51.730;5.356;2023-04-22T04:01:35;14.97;;;10.23;;
24617;SDS011;12762;51.730;5.356;2023-04-22T04:04:02;14.13;;;9.27;;
24617;SDS011;12762;51.730;5.356;2023-04-22T04:06:33;13.53;;;9.90;;
24617;SDS011;12762;51.730;5.356;2023-04-22T04:09:00;13.90;;;9.40;;
24617;SDS011;12762;51.730;5.356;2023-04-22T04:11:27;12.43;;;8.73;;
24617;SDS011;12762;51.730;5.356;2023-04-22T04:13:54;13.63;;;8.50;;
24617;SDS011;12762;51.730;5.356;2023-04-22T04:16:21;14.17;;;8.57;;
24617;SDS011;12762;51.730;5.356;2023-04-22T04:18:57;12.53;;;8.73;;
24617;SDS011;12762;51.730;5.356;2023-04-22T04:21:24;11.57;;;8.47;;
24617;SDS011;12762;51.730;5.356;2023-04-22T04:23:52;11.70;;;8.40;;
24617;SDS011;12762;51.730;5.356;2023-04-22T04:26:18;12.37;;;8.10;;
24617;SDS011;12762;51.730;5.356;2023-04-22T04:28:45;11.10;;;7.93;;
24617;SDS011;12762;51.730;5.356;2023-04-22T04:31:14;13.40;;;9.07;;
24617;SDS011;12762;51.730;5.356;2023-04-22T04:33:41;11.67;;;8.27;;
24617;SDS011;12762;51.730;5.356;2023-04-22T04:36:08;10.60;;;7.70;;
24617;SDS011;12762;51.730;5.356;2023-04-22T04:38:36;11.87;;;8.40;;
24617;SDS011;12762;51.730;5.356;2023-04-22T04:41:04;13.17;;;8.87;;
24617;SDS011;12762;51.730;5.356;2023-04-22T04:43:31;11.43;;;8.40;;
24617;SDS011;12762;51.730;5.356;2023-04-22T04:45:58;13.80;;;8.73;;
24617;SDS011;12762;51.730;5.356;2023-04-22T04:48:29;17.40;;;9.67;;
24617;SDS011;12762;51.730;5.356;2023-04-22T04:50:55;13.53;;;8.93;;
24617;SDS011;12762;51.730;5.356;2023-04-22T04:53:24;13.17;;;8.97;;
24617;SDS011;12762;51.730;5.356;2023-04-22T04:55:57;14.67;;;9.27;;
24617;SDS011;12762;51.730;5.356;2023-04-22T04:58:23;14.10;;;9.57;;
24617;SDS011;12762;51.730;5.356;2023-04-22T05:00:50;14.97;;;10.00;;
24617;SDS011;12762;51.730;5.356;2023-04-22T05:03:17;16.50;;;10.20;;
24617;SDS011;12762;51.730;5.356;2023-04-22T05:05:44;16.90;;;10.93;;
24617;SDS011;12762;51.730;5.356;2023-04-22T05:08:13;16.07;;;10.80;;
24617;SDS011;12762;51.730;5.356;2023-04-22T05:10:40;18.30;;;12.07;;
24617;SDS011;12762;51.730;5.356;2023-04-22T05:13:07;17.23;;;11.53;;
24617;SDS011;12762;51.730;5.356;2023-04-22T05:15:34;17.33;;;11.83;;
24617;SDS011;12762;51.730;5.356;2023-04-22T05:18:01;19.13;;;12.03;;
24617;SDS011;12762;51.730;5.356;2023-04-22T05:20:28;17.97;;;12.33;;
24617;SDS011;12762;51.730;5.356;2023-04-22T05:23:01;16.83;;;12.30;;
24617;SDS011;12762;51.730;5.356;2023-04-22T05:25:28;19.23;;;12.63;;
24617;SDS011;12762;51.730;5.356;2023-04-22T05:27:54;20.97;;;13.30;;
24617;SDS011;12762;51.730;5.356;2023-04-22T05:30:21;19.30;;;12.47;;
24617;SDS011;12762;51.730;5.356;2023-04-22T05:32:50;21.50;;;13.47;;
24617;SDS011;12762;51.730;5.356;2023-04-22T05:35:20;16.83;;;11.63;;
24617;SDS011;12762;51.730;5.356;2023-04-22T05:37:47;19.13;;;13.23;;
24617;SDS011;12762;51.730;5.356;2023-04-22T05:40:15;19.87;;;13.53;;
24617;SDS011;12762;51.730;5.356;2023-04-22T05:42:42;21.83;;;12.23;;
24617;SDS011;12762;51.730;5.356;2023-04-22T05:45:09;19.20;;;13.10;;
24617;SDS011;12762;51.730;5.356;2023-04-22T05:47:39;20.10;;;13.63;;
24617;SDS011;12762;51.730;5.356;2023-04-22T05:50:06;20.87;;;13.60;;
24617;SDS011;12762;51.730;5.356;2023-04-22T05:52:33;20.80;;;14.20;;
24617;SDS011;12762;51.730;5.356;2023-04-22T05:55:00;19.20;;;13.53;;
24617;SDS011;12762;51.730;5.356;2023-04-22T05:57:27;21.57;;;14.33;;
24617;SDS011;12762;51.730;5.356;2023-04-22T05:59:56;20.17;;;14.30;;
24617;SDS011;12762;51.730;5.356;2023-04-22T06:02:24;22.57;;;14.17;;
24617;SDS011;12762;51.730;5.356;2023-04-22T06:04:51;20.33;;;14.47;;
24617;SDS011;12762;51.730;5.356;2023-04-22T06:07:18;20.43;;;13.97;;
24617;SDS011;12762;51.730;5.356;2023-04-22T06:09:51;25.23;;;16.20;;
24617;SDS011;12762;51.730;5.356;2023-04-22T06:12:29;21.57;;;15.50;;
24617;SDS011;12762;51.730;5.356;2023-04-22T06:14:56;25.37;;;17.07;;
24617;SDS011;12762;51.730;5.356;2023-04-22T06:17:26;23.43;;;15.93;;
24617;SDS011;12762;51.730;5.356;2023-04-22T06:19:53;26.07;;;17.60;;
24617;SDS011;12762;51.730;5.356;2023-04-22T06:22:20;28.07;;;17.53;;
24617;SDS011;12762;51.730;5.356;2023-04-22T06:24:47;24.30;;;16.60;;
24617;SDS011;12762;51.730;5.356;2023-04-22T06:27:13;20.73;;;15.27;;
24617;SDS011;12762;51.730;5.356;2023-04-22T06:29:40;21.83;;;14.73;;
24617;SDS011;12762;51.730;5.356;2023-04-22T06:32:07;22.33;;;15.27;;
24617;SDS011;12762;51.730;5.356;2023-04-22T06:34:37;23.13;;;16.73;;
24617;SDS011;12762;51.730;5.356;2023-04-22T06:37:06;22.27;;;14.93;;
24617;SDS011;12762;51.730;5.356;2023-04-22T06:39:34;21.80;;;14.97;;
24617;SDS011;12762;51.730;5.356;2023-04-22T06:42:01;20.27;;;14.97;;
24617;SDS011;12762;51.730;5.356;2023-04-22T06:44:30;18.50;;;13.63;;
24617;SDS011;12762;51.730;5.356;2023-04-22T06:46:57;23.53;;;15.27;;
24617;SDS011;12762;51.730;5.356;2023-04-22T06:49:24;23.27;;;16.43;;
24617;SDS011;12762;51.730;5.356;2023-04-22T06:51:51;23.30;;;16.17;;
24617;SDS011;12762;51.730;5.356;2023-04-22T06:54:18;18.03;;;13.00;;
24617;SDS011;12762;51.730;5.356;2023-04-22T06:56:45;17.97;;;13.00;;
24617;SDS011;12762;51.730;5.356;2023-04-22T06:59:12;15.90;;;12.83;;
24617;SDS011;12762;51.730;5.356;2023-04-22T07:01:39;18.13;;;14.10;;
24617;SDS011;12762;51.730;5.356;2023-04-22T07:04:06;16.80;;;11.23;;
24617;SDS011;12762;51.730;5.356;2023-04-22T07:06:33;14.13;;;10.47;;
24617;SDS011;12762;51.730;5.356;2023-04-22T07:09:00;16.03;;;10.70;;
24617;SDS011;12762;51.730;5.356;2023-04-22T07:11:28;15.17;;;11.20;;
24617;SDS011;12762;51.730;5.356;2023-04-22T07:13:56;14.93;;;10.73;;
24617;SDS011;12762;51.730;5.356;2023-04-22T07:16:23;15.43;;;11.13;;
24617;SDS011;12762;51.730;5.356;2023-04-22T07:18:51;13.37;;;10.00;;
24617;SDS011;12762;51.730;5.356;2023-04-22T07:21:18;15.73;;;10.93;;
24617;SDS011;12762;51.730;5.356;2023-04-22T07:23:45;18.37;;;10.90;;
24617;SDS011;12762;51.730;5.356;2023-04-22T07:26:12;15.53;;;10.60;;
24617;SDS011;12762;51.730;5.356;2023-04-22T07:28:39;14.23;;;10.13;;
24617;SDS011;12762;51.730;5.356;2023-04-22T07:31:06;12.93;;;10.13;;
24617;SDS011;12762;51.730;5.356;2023-04-22T07:33:32;14.70;;;11.10;;
24617;SDS011;12762;51.730;5.356;2023-04-22T07:36:02;12.87;;;9.50;;
24617;SDS011;12762;51.730;5.356;2023-04-22T07:38:29;15.43;;;11.23;;
24617;SDS011;12762;51.730;5.356;2023-04-22T07:40:56;14.50;;;10.53;;
24617;SDS011;12762;51.730;5.356;2023-04-22T07:43:23;15.17;;;11.30;;
24617;SDS011;12762;51.730;5.356;2023-04-22T07:45:50;13.10;;;10.27;;
24617;SDS011;12762;51.730;5.356;2023-04-22T07:48:17;12.30;;;9.93;;
24617;SDS011;12762;51.730;5.356;2023-04-22T07:50:43;12.97;;;9.80;;
24617;SDS011;12762;51.730;5.356;2023-04-22T07:53:10;13.30;;;9.93;;
24617;SDS011;12762;51.730;5.356;2023-04-22T07:55:38;12.43;;;9.10;;
24617;SDS011;12762;51.730;5.356;2023-04-22T07:58:05;12.20;;;8.33;;
24617;SDS011;12762;51.730;5.356;2023-04-22T08:00:35;10.30;;;8.90;;
24617;SDS011;12762;51.730;5.356;2023-04-22T08:03:02;11.20;;;8.50;;
24617;SDS011;12762;51.730;5.356;2023-04-22T08:05:30;16.07;;;9.47;;
24617;SDS011;12762;51.730;5.356;2023-04-22T08:07:56;14.57;;;9.10;;
24617;SDS011;12762;51.730;5.356;2023-04-22T08:10:23;10.60;;;8.67;;
24617;SDS011;12762;51.730;5.356;2023-04-22T08:12:51;10.07;;;7.87;;
24617;SDS011;12762;51.730;5.356;2023-04-22T08:15:18;10.63;;;8.43;;
24617;SDS011;12762;51.730;5.356;2023-04-22T08:17:45;11.00;;;8.13;;
24617;SDS011;12762;51.730;5.356;2023-04-22T08:20:12;8.80;;;6.93;;
24617;SDS011;12762;51.730;5.356;2023-04-22T08:22:40;10.73;;;7.67;;
24617;SDS011;12762;51.730;5.356;2023-04-22T08:25:10;11.97;;;8.97;;
24617;SDS011;12762;51.730;5.356;2023-04-22T08:27:38;10.60;;;7.60;;
24617;SDS011;12762;51.730;5.356;2023-04-22T08:30:05;11.77;;;7.23;;
24617;SDS011;12762;51.730;5.356;2023-04-22T08:32:32;11.57;;;7.63;;
24617;SDS011;12762;51.730;5.356;2023-04-22T08:34:59;9.93;;;7.73;;
24617;SDS011;12762;51.730;5.356;2023-04-22T08:37:30;9.70;;;7.10;;
24617;SDS011;12762;51.730;5.356;2023-04-22T08:39:57;10.70;;;7.20;;
24617;SDS011;12762;51.730;5.356;2023-04-22T08:42:24;8.03;;;7.17;;
24617;SDS011;12762;51.730;5.356;2023-04-22T08:44:52;13.53;;;8.17;;
24617;SDS011;12762;51.730;5.356;2023-04-22T08:47:20;11.00;;;7.73;;
24617;SDS011;12762;51.730;5.356;2023-04-22T08:49:47;9.73;;;7.00;;
24617;SDS011;12762;51.730;5.356;2023-04-22T08:52:18;12.20;;;7.73;;
24617;SDS011;12762;51.730;5.356;2023-04-22T08:54:46;10.63;;;7.43;;
24617;SDS011;12762;51.730;5.356;2023-04-22T08:57:13;10.87;;;7.63;;
24617;SDS011;12762;51.730;5.356;2023-04-22T08:59:41;9.60;;;7.40;;
24617;SDS011;12762;51.730;5.356;2023-04-22T09:02:12;10.50;;;6.70;;
24617;SDS011;12762;51.730;5.356;2023-04-22T09:04:43;10.07;;;6.47;;
24617;SDS011;12762;51.730;5.356;2023-04-22T09:07:13;9.60;;;7.23;;
24617;SDS011;12762;51.730;5.356;2023-04-22T09:09:47;9.80;;;7.00;;
24617;SDS011;12762;51.730;5.356;2023-04-22T09:12:14;9.67;;;7.47;;
24617;SDS011;12762;51.730;5.356;2023-04-22T09:14:43;9.27;;;6.80;;
24617;SDS011;12762;51.730;5.356;2023-04-22T09:17:10;7.70;;;5.90;;
24617;SDS011;12762;51.730;5.356;2023-04-22T09:19:42;10.23;;;6.50;;
24617;SDS011;12762;51.730;5.356;2023-04-22T09:22:12;9.10;;;6.47;;
24617;SDS011;12762;51.730;5.356;2023-04-22T09:24:41;7.93;;;6.20;;
24617;SDS011;12762;51.730;5.356;2023-04-22T09:27:17;7.73;;;6.13;;
24617;SDS011;12762;51.730;5.356;2023-04-22T09:29:47;7.83;;;5.67;;
24617;SDS011;12762;51.730;5.356;2023-04-22T09:32:15;8.43;;;5.87;;
24617;SDS011;12762;51.730;5.356;2023-04-22T09:34:47;9.60;;;6.10;;
24617;SDS011;12762;51.730;5.356;2023-04-22T09:37:17;9.07;;;6.10;;
24617;SDS011;12762;51.730;5.356;2023-04-22T09:39:49;9.43;;;6.90;;
24617;SDS011;12762;51.730;5.356;2023-04-22T09:42:17;9.23;;;6.83;;
24617;SDS011;12762;51.730;5.356;2023-04-22T09:44:48;8.83;;;6.60;;
24617;SDS011;12762;51.730;5.356;2023-04-22T09:47:19;9.60;;;5.37;;
24617;SDS011;12762;51.730;5.356;2023-04-22T09:49:51;8.43;;;5.60;;
24617;SDS011;12762;51.730;5.356;2023-04-22T09:52:21;8.67;;;5.90;;
24617;SDS011;12762;51.730;5.356;2023-04-22T09:54:53;7.27;;;5.40;;
24617;SDS011;12762;51.730;5.356;2023-04-22T09:57:20;6.63;;;5.07;;
24617;SDS011;12762;51.730;5.356;2023-04-22T09:59:50;7.67;;;5.27;;
24617;SDS011;12762;51.730;5.356;2023-04-22T10:04:52;7.57;;;5.90;;
24617;SDS011;12762;51.730;5.356;2023-04-22T10:07:18;9.43;;;6.13;;
24617;SDS011;12762;51.730;5.356;2023-04-22T10:09:45;8.07;;;5.87;;
24617;SDS011;12762;51.730;5.356;2023-04-22T10:12:13;7.33;;;5.53;;
24617;SDS011;12762;51.730;5.356;2023-04-22T10:14:41;8.97;;;6.10;;
24617;SDS011;12762;51.730;5.356;2023-04-22T10:17:08;8.43;;;6.10;;
24617;SDS011;12762;51.730;5.356;2023-04-22T10:19:37;10.03;;;6.33;;
24617;SDS011;12762;51.730;5.356;2023-04-22T10:22:05;9.27;;;6.60;;
24617;SDS011;12762;51.730;5.356;2023-04-22T10:24:35;9.23;;;6.50;;
24617;SDS011;12762;51.730;5.356;2023-04-22T10:27:03;7.57;;;5.27;;
24617;SDS011;12762;51.730;5.356;2023-04-22T10:29:36;9.80;;;6.07;;
24617;SDS011;12762;51.730;5.356;2023-04-22T10:32:07;10.47;;;6.20;;
24617;SDS011;12762;51.730;5.356;2023-04-22T10:35:06;6.63;;;5.13;;
24617;SDS011;12762;51.730;5.356;2023-04-22T10:37:42;10.00;;;6.63;;
24617;SDS011;12762;51.730;5.356;2023-04-22T10:40:14;8.47;;;6.37;;
24617;SDS011;12762;51.730;5.356;2023-04-22T10:42:46;10.37;;;6.40;;
24617;SDS011;12762;51.730;5.356;2023-04-22T10:45:15;9.37;;;5.97;;
24617;SDS011;12762;51.730;5.356;2023-04-22T10:47:43;7.63;;;5.63;;
24617;SDS011;12762;51.730;5.356;2023-04-22T10:50:12;7.20;;;5.50;;
24617;SDS011;12762;51.730;5.356;2023-04-22T10:52:44;7.83;;;5.23;;
24617;SDS011;12762;51.730;5.356;2023-04-22T10:55:12;7.80;;;5.57;;
24617;SDS011;12762;51.730;5.356;2023-04-22T10:57:43;8.43;;;5.47;;
24617;SDS011;12762;51.730;5.356;2023-04-22T11:02:50;9.47;;;5.90;;
24617;SDS011;12762;51.730;5.356;2023-04-22T11:05:38;7.47;;;5.93;;
24617;SDS011;12762;51.730;5.356;2023-04-22T11:08:18;9.47;;;5.90;;
24617;SDS011;12762;51.730;5.356;2023-04-22T11:10:53;7.50;;;5.73;;
24617;SDS011;12762;51.730;5.356;2023-04-22T11:13:34;8.53;;;6.00;;
24617;SDS011;12762;51.730;5.356;2023-04-22T11:16:01;8.03;;;5.47;;
24617;SDS011;12762;51.730;5.356;2023-04-22T11:18:28;7.33;;;5.93;;
24617;SDS011;12762;51.730;5.356;2023-04-22T11:21:01;8.87;;;6.60;;
24617;SDS011;12762;51.730;5.356;2023-04-22T11:23:31;9.30;;;6.67;;
24617;SDS011;12762;51.730;5.356;2023-04-22T11:25:59;9.00;;;6.70;;
24617;SDS011;12762;51.730;5.356;2023-04-22T11:28:27;9.47;;;7.00;;
24617;SDS011;12762;51.730;5.356;2023-04-22T11:31:01;10.67;;;7.10;;
24617;SDS011;12762;51.730;5.356;2023-04-22T11:33:33;10.37;;;6.83;;
24617;SDS011;12762;51.730;5.356;2023-04-22T11:36:00;10.50;;;7.00;;
24617;SDS011;12762;51.730;5.356;2023-04-22T11:38:27;10.73;;;7.27;;
24617;SDS011;12762;51.730;5.356;2023-04-22T11:40:55;9.77;;;7.43;;
24617;SDS011;12762;51.730;5.356;2023-04-22T11:43:23;10.27;;;6.63;;
24617;SDS011;12762;51.730;5.356;2023-04-22T11:45:50;9.23;;;7.10;;
24617;SDS011;12762;51.730;5.356;2023-04-22T11:48:17;8.20;;;6.43;;
24617;SDS011;12762;51.730;5.356;2023-04-22T11:50:44;9.10;;;6.40;;
24617;SDS011;12762;51.730;5.356;2023-04-22T11:53:20;9.93;;;6.37;;
24617;SDS011;12762;51.730;5.356;2023-04-22T11:55:50;9.87;;;7.13;;
24617;SDS011;12762;51.730;5.356;2023-04-22T11:58:18;10.83;;;6.70;;
24617;SDS011;12762;51.730;5.356;2023-04-22T12:00:50;9.67;;;6.63;;
24617;SDS011;12762;51.730;5.356;2023-04-22T12:03:19;9.93;;;6.87;;
24617;SDS011;12762;51.730;5.356;2023-04-22T12:08:23;12.10;;;7.43;;
24617;SDS011;12762;51.730;5.356;2023-04-22T12:11:14;11.07;;;7.63;;
24617;SDS011;12762;51.730;5.356;2023-04-22T12:13:41;12.77;;;8.40;;
24617;SDS011;12762;51.730;5.356;2023-04-22T12:16:10;10.50;;;8.27;;
24617;SDS011;12762;51.730;5.356;2023-04-22T12:18:48;12.33;;;8.20;;
24617;SDS011;12762;51.730;5.356;2023-04-22T12:21:20;12.93;;;8.87;;
24617;SDS011;12762;51.730;5.356;2023-04-22T12:23:49;20.77;;;10.00;;
24617;SDS011;12762;51.730;5.356;2023-04-22T12:26:18;11.23;;;9.07;;
24617;SDS011;12762;51.730;5.356;2023-04-22T12:28:50;11.90;;;8.97;;
24617;SDS011;12762;51.730;5.356;2023-04-22T12:31:17;12.57;;;9.07;;
24617;SDS011;12762;51.730;5.356;2023-04-22T12:33:44;14.37;;;9.17;;
24617;SDS011;12762;51.730;5.356;2023-04-22T12:36:12;11.63;;;8.47;;
24617;SDS011;12762;51.730;5.356;2023-04-22T12:38:38;13.47;;;9.20;;
24617;SDS011;12762;51.730;5.356;2023-04-22T12:41:06;12.40;;;9.20;;
24617;SDS011;12762;51.730;5.356;2023-04-22T12:43:33;13.60;;;9.57;;
24617;SDS011;12762;51.730;5.356;2023-04-22T12:46:02;12.23;;;8.83;;
24617;SDS011;12762;51.730;5.356;2023-04-22T12:48:29;13.40;;;9.07;;
24617;SDS011;12762;51.730;5.356;2023-04-22T12:50:57;14.03;;;9.60;;
24617;SDS011;12762;51.730;5.356;2023-04-22T12:53:25;14.43;;;9.23;;
24617;SDS011;12762;51.730;5.356;2023-04-22T12:55:56;15.20;;;9.50;;
24617;SDS011;12762;51.730;5.356;2023-04-22T12:58:23;12.43;;;9.37;;
24617;SDS011;12762;51.730;5.356;2023-04-22T13:00:51;13.57;;;10.17;;
24617;SDS011;12762;51.730;5.356;2023-04-22T13:03:18;15.37;;;10.17;;
24617;SDS011;12762;51.730;5.356;2023-04-22T13:05:45;13.90;;;10.17;;
24617;SDS011;12762;51.730;5.356;2023-04-22T13:08:12;15.40;;;10.20;;
24617;SDS011;12762;51.730;5.356;2023-04-22T13:10:39;13.50;;;10.87;;
24617;SDS011;12762;51.730;5.356;2023-04-22T13:13:06;16.20;;;10.53;;
24617;SDS011;12762;51.730;5.356;2023-04-22T13:15:36;15.73;;;10.10;;
24617;SDS011;12762;51.730;5.356;2023-04-22T13:18:04;16.70;;;11.03;;
24617;SDS011;12762;51.730;5.356;2023-04-22T13:20:32;13.90;;;10.23;;
24617;SDS011;12762;51.730;5.356;2023-04-22T13:23:02;15.03;;;10.27;;
24617;SDS011;12762;51.730;5.356;2023-04-22T13:25:30;14.10;;;9.97;;
24617;SDS011;12762;51.730;5.356;2023-04-22T13:27:57;14.53;;;10.87;;
24617;SDS011;12762;51.730;5.356;2023-04-22T13:30:24;13.80;;;10.13;;
24617;SDS011;12762;51.730;5.356;2023-04-22T13:32:51;15.23;;;10.43;;
24617;SDS011;12762;51.730;5.356;2023-04-22T13:35:18;12.70;;;10.10;;
24617;SDS011;12762;51.730;5.356;2023-04-22T13:37:44;15.20;;;10.33;;
24617;SDS011;12762;51.730;5.356;2023-04-22T13:40:12;13.40;;;9.20;;
24617;SDS011;12762;51.730;5.356;2023-04-22T13:42:39;13.80;;;10.27;;
24617;SDS011;12762;51.730;5.356;2023-04-22T13:45:06;13.80;;;9.50;;
24617;SDS011;12762;51.730;5.356;2023-04-22T13:47:33;13.43;;;9.40;;
24617;SDS011;12762;51.730;5.356;2023-04-22T13:50:00;12.27;;;9.53;;
24617;SDS011;12762;51.730;5.356;2023-04-22T13:52:27;13.07;;;9.27;;
24617;SDS011;12762;51.730;5.356;2023-04-22T13:54:54;11.20;;;8.97;;
24617;SDS011;12762;51.730;5.356;2023-04-22T13:57:21;14.20;;;9.37;;
24617;SDS011;12762;51.730;5.356;2023-04-22T13:59:48;15.63;;;10.23;;
24617;SDS011;12762;51.730;5.356;2023-04-22T14:02:16;13.93;;;9.97;;
24617;SDS011;12762;51.730;5.356;2023-04-22T14:04:43;13.70;;;9.37;;
24617;SDS011;12762;51.730;5.356;2023-04-22T14:07:12;12.53;;;8.70;;
24617;SDS011;12762;51.730;5.356;2023-04-22T14:09:39;14.17;;;9.73;;
24617;SDS011;12762;51.730;5.356;2023-04-22T14:12:07;15.73;;;9.50;;
24617;SDS011;12762;51.730;5.356;2023-04-22T14:14:34;11.70;;;8.73;;
24617;SDS011;12762;51.730;5.356;2023-04-22T14:17:01;12.57;;;9.00;;
24617;SDS011;12762;51.730;5.356;2023-04-22T14:19:28;14.07;;;10.50;;
24617;SDS011;12762;51.730;5.356;2023-04-22T14:21:56;13.47;;;9.63;;
24617;SDS011;12762;51.730;5.356;2023-04-22T14:24:23;12.10;;;9.27;;
24617;SDS011;12762;51.730;5.356;2023-04-22T14:26:53;14.70;;;9.70;;
24617;SDS011;12762;51.730;5.356;2023-04-22T14:29:23;13.03;;;9.63;;
24617;SDS011;12762;51.730;5.356;2023-04-22T14:31:50;14.93;;;9.77;;
24617;SDS011;12762;51.730;5.356;2023-04-22T14:34:17;13.17;;;9.67;;
24617;SDS011;12762;51.730;5.356;2023-04-22T14:36:44;14.67;;;9.77;;
24617;SDS011;12762;51.730;5.356;2023-04-22T14:39:10;13.47;;;10.10;;
24617;SDS011;12762;51.730;5.356;2023-04-22T14:41:37;13.27;;;9.83;;
24617;SDS011;12762;51.730;5.356;2023-04-22T14:44:04;13.50;;;9.43;;
24617;SDS011;12762;51.730;5.356;2023-04-22T14:46:31;13.40;;;9.63;;